sensor_id;sensor_type;location;lat;lon;timestamp;P1;durP1;ratioP1;P2;durP2;ratioP2
24435;SDS011;12616;52.470;13.436;2023-02-13T00:00:37;31.73;;;17.03;;
24435;SDS011;12616;52.470;13.436;2023-02-13T00:03:03;29.67;;;15.53;;
24435;SDS011;12616;52.470;13.436;2023-02-13T00:05:30;29.10;;;16.50;;
24435;SDS011;12616;52.470;13.436;2023-02-13T00:07:57;25.20;;;13.87;;
24435;SDS011;12616;52.470;13.436;2023-02-13T00:10:24;28.53;;;15.73;;
24435;SDS011;12616;52.470;13.436;2023-02-13T00:12:51;28.27;;;14.10;;
24435;SDS011;12616;52.470;13.436;2023-02-13T00:15:18;27.70;;;14.90;;
24435;SDS011;12616;52.470;13.436;2023-02-13T00:17:47;23.43;;;12.93;;
24435;SDS011;12616;52.470;13.436;2023-02-13T00:20:13;18.23;;;10.33;;
24435;SDS011;12616;52.470;13.436;2023-02-13T00:22:40;22.83;;;10.40;;
24435;SDS011;12616;52.470;13.436;2023-02-13T00:25:07;18.70;;;10.30;;
24435;SDS011;12616;52.470;13.436;2023-02-13T00:27:34;20.30;;;10.40;;
24435;SDS011;12616;52.470;13.436;2023-02-13T00:30:02;19.80;;;10.50;;
24435;SDS011;12616;52.470;13.436;2023-02-13T00:32:29;15.87;;;10.23;;
24435;SDS011;12616;52.470;13.436;2023-02-13T00:34:57;16.87;;;10.10;;
24435;SDS011;12616;52.470;13.436;2023-02-13T00:37:24;16.17;;;9.47;;
24435;SDS011;12616;52.470;13.436;2023-02-13T00:39:51;17.57;;;9.33;;
24435;SDS011;12616;52.470;13.436;2023-02-13T00:42:18;14.40;;;9.03;;
24435;SDS011;12616;52.470;13.436;2023-02-13T00:44:48;16.60;;;9.40;;
24435;SDS011;12616;52.470;13.436;2023-02-13T00:47:14;13.10;;;8.68;;
24435;SDS011;12616;52.470;13.436;2023-02-13T00:49:41;14.60;;;8.50;;
24435;SDS011;12616;52.470;13.436;2023-02-13T00:52:09;11.57;;;6.27;;
24435;SDS011;12616;52.470;13.436;2023-02-13T00:54:36;11.23;;;6.47;;
24435;SDS011;12616;52.470;13.436;2023-02-13T00:57:04;7.70;;;6.10;;
24435;SDS011;12616;52.470;13.436;2023-02-13T00:59:31;10.17;;;6.50;;
24435;SDS011;12616;52.470;13.436;2023-02-13T01:01:58;7.47;;;5.20;;
24435;SDS011;12616;52.470;13.436;2023-02-13T01:04:25;10.20;;;4.70;;
24435;SDS011;12616;52.470;13.436;2023-02-13T01:06:51;6.70;;;4.10;;
24435;SDS011;12616;52.470;13.436;2023-02-13T01:09:20;4.13;;;3.05;;
24435;SDS011;12616;52.470;13.436;2023-02-13T01:11:46;4.63;;;3.00;;
24435;SDS011;12616;52.470;13.436;2023-02-13T01:14:13;4.35;;;3.08;;
24435;SDS011;12616;52.470;13.436;2023-02-13T01:16:40;7.43;;;3.50;;
24435;SDS011;12616;52.470;13.436;2023-02-13T01:19:07;4.53;;;2.77;;
24435;SDS011;12616;52.470;13.436;2023-02-13T01:21:33;4.70;;;2.80;;
24435;SDS011;12616;52.470;13.436;2023-02-13T01:24:01;4.67;;;3.00;;
24435;SDS011;12616;52.470;13.436;2023-02-13T01:26:31;7.68;;;3.20;;
24435;SDS011;12616;52.470;13.436;2023-02-13T01:28:57;4.37;;;3.27;;
24435;SDS011;12616;52.470;13.436;2023-02-13T01:31:25;12.33;;;3.37;;
24435;SDS011;12616;52.470;13.436;2023-02-13T01:33:54;4.70;;;2.70;;
24435;SDS011;12616;52.470;13.436;2023-02-13T01:36:22;2.60;;;2.40;;
24435;SDS011;12616;52.470;13.436;2023-02-13T01:38:51;4.10;;;2.65;;
24435;SDS011;12616;52.470;13.436;2023-02-13T01:41:19;4.40;;;3.70;;
24435;SDS011;12616;52.470;13.436;2023-02-13T01:43:49;4.97;;;2.70;;
24435;SDS011;12616;52.470;13.436;2023-02-13T01:46:21;4.78;;;2.95;;
24435;SDS011;12616;52.470;13.436;2023-02-13T01:48:51;7.17;;;2.83;;
24435;SDS011;12616;52.470;13.436;2023-02-13T01:51:22;4.53;;;2.90;;
24435;SDS011;12616;52.470;13.436;2023-02-13T01:53:51;4.40;;;3.05;;
24435;SDS011;12616;52.470;13.436;2023-02-13T01:56:24;4.67;;;2.80;;
24435;SDS011;12616;52.470;13.436;2023-02-13T01:58:56;4.90;;;3.20;;
24435;SDS011;12616;52.470;13.436;2023-02-13T02:01:25;3.20;;;2.87;;
24435;SDS011;12616;52.470;13.436;2023-02-13T02:03:54;4.38;;;2.70;;
24435;SDS011;12616;52.470;13.436;2023-02-13T02:06:25;3.90;;;3.47;;
24435;SDS011;12616;52.470;13.436;2023-02-13T02:08:54;8.57;;;4.07;;
24435;SDS011;12616;52.470;13.436;2023-02-13T02:11:25;3.43;;;3.07;;
24435;SDS011;12616;52.470;13.436;2023-02-13T02:13:58;4.70;;;3.50;;
24435;SDS011;12616;52.470;13.436;2023-02-13T02:16:27;4.63;;;3.30;;
24435;SDS011;12616;52.470;13.436;2023-02-13T02:18:54;5.60;;;3.30;;
24435;SDS011;12616;52.470;13.436;2023-02-13T02:28:01;7.27;;;5.27;;
24435;SDS011;12616;52.470;13.436;2023-02-13T02:33:55;7.70;;;5.30;;
24435;SDS011;12616;52.470;13.436;2023-02-13T02:36:36;7.03;;;4.40;;
24435;SDS011;12616;52.470;13.436;2023-02-13T02:39:17;4.67;;;4.17;;
24435;SDS011;12616;52.470;13.436;2023-02-13T02:41:53;4.40;;;4.00;;
24435;SDS011;12616;52.470;13.436;2023-02-13T02:44:30;6.03;;;4.75;;
24435;SDS011;12616;52.470;13.436;2023-02-13T02:47:07;6.60;;;5.00;;
24435;SDS011;12616;52.470;13.436;2023-02-13T02:50:01;7.83;;;4.87;;
24435;SDS011;12616;52.470;13.436;2023-02-13T02:52:44;7.27;;;4.60;;
24435;SDS011;12616;52.470;13.436;2023-02-13T02:55:23;7.17;;;5.70;;
24435;SDS011;12616;52.470;13.436;2023-02-13T02:57:59;8.47;;;4.80;;
24435;SDS011;12616;52.470;13.436;2023-02-13T03:00:48;8.23;;;5.87;;
24435;SDS011;12616;52.470;13.436;2023-02-13T03:03:38;7.60;;;4.50;;
24435;SDS011;12616;52.470;13.436;2023-02-13T03:06:26;7.30;;;5.63;;
24435;SDS011;12616;52.470;13.436;2023-02-13T03:08:59;6.00;;;4.30;;
24435;SDS011;12616;52.470;13.436;2023-02-13T03:11:47;10.10;;;5.50;;
24435;SDS011;12616;52.470;13.436;2023-02-13T03:14:34;5.50;;;4.33;;
24435;SDS011;12616;52.470;13.436;2023-02-13T03:17:01;8.05;;;5.18;;
24435;SDS011;12616;52.470;13.436;2023-02-13T03:19:54;6.20;;;5.60;;
24435;SDS011;12616;52.470;13.436;2023-02-13T03:22:43;6.00;;;5.40;;
24435;SDS011;12616;52.470;13.436;2023-02-13T03:25:27;7.90;;;5.38;;
24435;SDS011;12616;52.470;13.436;2023-02-13T03:28:00;8.85;;;5.80;;
24435;SDS011;12616;52.470;13.436;2023-02-13T03:30:56;12.50;;;6.70;;
24435;SDS011;12616;52.470;13.436;2023-02-13T03:33:36;9.53;;;6.37;;
24435;SDS011;12616;52.470;13.436;2023-02-13T03:36:16;9.83;;;7.17;;
24435;SDS011;12616;52.470;13.436;2023-02-13T03:39:05;10.20;;;6.70;;
24435;SDS011;12616;52.470;13.436;2023-02-13T03:41:38;13.83;;;8.23;;
24435;SDS011;12616;52.470;13.436;2023-02-13T03:44:10;13.67;;;6.77;;
24435;SDS011;12616;52.470;13.436;2023-02-13T03:46:43;11.40;;;7.10;;
24435;SDS011;12616;52.470;13.436;2023-02-13T03:49:16;15.25;;;7.57;;
24435;SDS011;12616;52.470;13.436;2023-02-13T03:52:07;12.40;;;8.33;;
24435;SDS011;12616;52.470;13.436;2023-02-13T03:54:40;11.10;;;7.97;;
24435;SDS011;12616;52.470;13.436;2023-02-13T03:57:29;11.48;;;7.82;;
24435;SDS011;12616;52.470;13.436;2023-02-13T04:00:17;10.25;;;6.75;;
24435;SDS011;12616;52.470;13.436;2023-02-13T04:02:50;14.47;;;7.40;;
24435;SDS011;12616;52.470;13.436;2023-02-13T04:05:23;12.70;;;7.50;;
24435;SDS011;12616;52.470;13.436;2023-02-13T04:07:54;15.57;;;7.78;;
24435;SDS011;12616;52.470;13.436;2023-02-13T04:10:23;13.27;;;7.70;;
24435;SDS011;12616;52.470;13.436;2023-02-13T04:12:56;13.73;;;7.40;;
24435;SDS011;12616;52.470;13.436;2023-02-13T04:15:31;9.93;;;7.10;;
24435;SDS011;12616;52.470;13.436;2023-02-13T04:18:03;14.20;;;8.10;;
24435;SDS011;12616;52.470;13.436;2023-02-13T04:20:34;11.43;;;7.63;;
24435;SDS011;12616;52.470;13.436;2023-02-13T04:23:04;12.43;;;8.73;;
24435;SDS011;12616;52.470;13.436;2023-02-13T04:25:35;13.50;;;8.67;;
24435;SDS011;12616;52.470;13.436;2023-02-13T04:28:04;12.25;;;6.80;;
24435;SDS011;12616;52.470;13.436;2023-02-13T04:30:31;11.05;;;7.53;;
24435;SDS011;12616;52.470;13.436;2023-02-13T04:32:58;14.23;;;8.20;;
24435;SDS011;12616;52.470;13.436;2023-02-13T04:35:25;19.42;;;9.20;;
24435;SDS011;12616;52.470;13.436;2023-02-13T04:37:52;14.20;;;9.10;;
24435;SDS011;12616;52.470;13.436;2023-02-13T04:40:19;15.23;;;9.55;;
24435;SDS011;12616;52.470;13.436;2023-02-13T04:42:47;13.90;;;8.73;;
24435;SDS011;12616;52.470;13.436;2023-02-13T04:45:14;13.10;;;8.30;;
24435;SDS011;12616;52.470;13.436;2023-02-13T04:47:42;14.35;;;9.32;;
24435;SDS011;12616;52.470;13.436;2023-02-13T04:50:09;13.37;;;8.87;;
24435;SDS011;12616;52.470;13.436;2023-02-13T04:52:36;16.13;;;9.50;;
24435;SDS011;12616;52.470;13.436;2023-02-13T04:55:03;15.90;;;10.20;;
24435;SDS011;12616;52.470;13.436;2023-02-13T04:57:30;16.90;;;9.33;;
24435;SDS011;12616;52.470;13.436;2023-02-13T04:59:58;16.17;;;10.07;;
24435;SDS011;12616;52.470;13.436;2023-02-13T05:02:25;15.60;;;9.70;;
24435;SDS011;12616;52.470;13.436;2023-02-13T05:04:52;14.60;;;8.87;;
24435;SDS011;12616;52.470;13.436;2023-02-13T05:07:18;18.20;;;10.40;;
24435;SDS011;12616;52.470;13.436;2023-02-13T05:09:45;12.80;;;8.80;;
24435;SDS011;12616;52.470;13.436;2023-02-13T05:12:12;11.40;;;7.57;;
24435;SDS011;12616;52.470;13.436;2023-02-13T05:14:39;14.32;;;8.27;;
24435;SDS011;12616;52.470;13.436;2023-02-13T05:17:07;14.10;;;8.27;;
24435;SDS011;12616;52.470;13.436;2023-02-13T05:19:34;11.82;;;7.53;;
24435;SDS011;12616;52.470;13.436;2023-02-13T05:22:01;10.67;;;7.10;;
24435;SDS011;12616;52.470;13.436;2023-02-13T05:24:46;10.88;;;6.38;;
24435;SDS011;12616;52.470;13.436;2023-02-13T05:27:13;11.23;;;6.60;;
24435;SDS011;12616;52.470;13.436;2023-02-13T05:29:40;11.30;;;6.47;;
24435;SDS011;12616;52.470;13.436;2023-02-13T05:32:08;10.73;;;7.30;;
24435;SDS011;12616;52.470;13.436;2023-02-13T05:34:35;12.40;;;7.63;;
24435;SDS011;12616;52.470;13.436;2023-02-13T05:37:02;9.47;;;7.10;;
24435;SDS011;12616;52.470;13.436;2023-02-13T05:39:29;8.73;;;6.30;;
24435;SDS011;12616;52.470;13.436;2023-02-13T05:41:56;11.30;;;6.43;;
24435;SDS011;12616;52.470;13.436;2023-02-13T05:44:22;11.20;;;7.50;;
24435;SDS011;12616;52.470;13.436;2023-02-13T05:46:49;9.60;;;6.23;;
24435;SDS011;12616;52.470;13.436;2023-02-13T05:49:18;11.70;;;8.20;;
24435;SDS011;12616;52.470;13.436;2023-02-13T05:51:46;11.13;;;6.77;;
24435;SDS011;12616;52.470;13.436;2023-02-13T05:54:16;11.87;;;8.37;;
24435;SDS011;12616;52.470;13.436;2023-02-13T05:56:43;9.38;;;6.95;;
24435;SDS011;12616;52.470;13.436;2023-02-13T05:59:10;12.90;;;7.77;;
24435;SDS011;12616;52.470;13.436;2023-02-13T06:01:37;7.45;;;6.45;;
24435;SDS011;12616;52.470;13.436;2023-02-13T06:04:04;14.25;;;6.20;;
24435;SDS011;12616;52.470;13.436;2023-02-13T06:06:32;9.68;;;6.95;;
24435;SDS011;12616;52.470;13.436;2023-02-13T06:08:59;14.47;;;9.17;;
24435;SDS011;12616;52.470;13.436;2023-02-13T06:11:26;9.75;;;6.80;;
24435;SDS011;12616;52.470;13.436;2023-02-13T06:13:53;9.03;;;6.80;;
24435;SDS011;12616;52.470;13.436;2023-02-13T06:16:20;9.10;;;6.33;;
24435;SDS011;12616;52.470;13.436;2023-02-13T06:18:47;10.93;;;5.90;;
24435;SDS011;12616;52.470;13.436;2023-02-13T06:21:14;7.27;;;6.23;;
24435;SDS011;12616;52.470;13.436;2023-02-13T06:23:43;9.23;;;6.33;;
24435;SDS011;12616;52.470;13.436;2023-02-13T06:26:10;9.83;;;7.37;;
24435;SDS011;12616;52.470;13.436;2023-02-13T06:28:36;7.83;;;6.67;;
24435;SDS011;12616;52.470;13.436;2023-02-13T06:31:04;10.07;;;7.00;;
24435;SDS011;12616;52.470;13.436;2023-02-13T06:33:31;9.32;;;6.32;;
24435;SDS011;12616;52.470;13.436;2023-02-13T06:35:57;9.45;;;7.95;;
24435;SDS011;12616;52.470;13.436;2023-02-13T06:38:25;9.83;;;6.03;;
24435;SDS011;12616;52.470;13.436;2023-02-13T06:40:57;11.07;;;7.00;;
24435;SDS011;12616;52.470;13.436;2023-02-13T06:43:25;7.53;;;6.23;;
24435;SDS011;12616;52.470;13.436;2023-02-13T06:45:51;9.32;;;6.60;;
24435;SDS011;12616;52.470;13.436;2023-02-13T06:48:19;8.57;;;5.80;;
24435;SDS011;12616;52.470;13.436;2023-02-13T06:50:45;7.90;;;7.10;;
24435;SDS011;12616;52.470;13.436;2023-02-13T06:53:12;8.50;;;6.27;;
24435;SDS011;12616;52.470;13.436;2023-02-13T06:55:39;8.63;;;6.27;;
24435;SDS011;12616;52.470;13.436;2023-02-13T06:58:07;11.83;;;7.80;;
24435;SDS011;12616;52.470;13.436;2023-02-13T07:00:34;12.10;;;7.40;;
24435;SDS011;12616;52.470;13.436;2023-02-13T07:03:02;7.93;;;5.90;;
24435;SDS011;12616;52.470;13.436;2023-02-13T07:05:30;7.73;;;6.00;;
24435;SDS011;12616;52.470;13.436;2023-02-13T07:07:57;7.87;;;5.93;;
24435;SDS011;12616;52.470;13.436;2023-02-13T07:10:24;11.10;;;6.60;;
24435;SDS011;12616;52.470;13.436;2023-02-13T07:12:50;6.90;;;6.07;;
24435;SDS011;12616;52.470;13.436;2023-02-13T07:15:19;7.57;;;6.03;;
24435;SDS011;12616;52.470;13.436;2023-02-13T07:17:46;9.80;;;6.50;;
24435;SDS011;12616;52.470;13.436;2023-02-13T07:20:13;13.70;;;7.80;;
24435;SDS011;12616;52.470;13.436;2023-02-13T07:22:40;9.33;;;6.20;;
24435;SDS011;12616;52.470;13.436;2023-02-13T07:25:07;9.07;;;6.63;;
24435;SDS011;12616;52.470;13.436;2023-02-13T07:27:34;11.15;;;6.50;;
24435;SDS011;12616;52.470;13.436;2023-02-13T07:30:01;7.37;;;5.83;;
24435;SDS011;12616;52.470;13.436;2023-02-13T07:32:29;8.95;;;6.47;;
24435;SDS011;12616;52.470;13.436;2023-02-13T07:34:56;10.73;;;6.80;;
24435;SDS011;12616;52.470;13.436;2023-02-13T07:37:23;10.73;;;7.03;;
24435;SDS011;12616;52.470;13.436;2023-02-13T07:39:52;8.87;;;6.83;;
24435;SDS011;12616;52.470;13.436;2023-02-13T07:42:19;13.75;;;7.28;;
24435;SDS011;12616;52.470;13.436;2023-02-13T07:44:46;10.17;;;7.70;;
24435;SDS011;12616;52.470;13.436;2023-02-13T07:47:13;9.20;;;7.20;;
24435;SDS011;12616;52.470;13.436;2023-02-13T07:49:41;8.93;;;6.43;;
24435;SDS011;12616;52.470;13.436;2023-02-13T07:52:13;10.27;;;6.60;;
24435;SDS011;12616;52.470;13.436;2023-02-13T07:54:40;7.50;;;5.90;;
24435;SDS011;12616;52.470;13.436;2023-02-13T07:57:14;9.53;;;6.80;;
24435;SDS011;12616;52.470;13.436;2023-02-13T07:59:41;13.67;;;7.13;;
24435;SDS011;12616;52.470;13.436;2023-02-13T08:02:09;11.43;;;7.30;;
24435;SDS011;12616;52.470;13.436;2023-02-13T08:04:38;10.63;;;7.73;;
24435;SDS011;12616;52.470;13.436;2023-02-13T08:07:06;11.20;;;7.47;;
24435;SDS011;12616;52.470;13.436;2023-02-13T08:09:33;12.07;;;8.20;;
24435;SDS011;12616;52.470;13.436;2023-02-13T08:12:18;11.70;;;7.87;;
24435;SDS011;12616;52.470;13.436;2023-02-13T08:14:45;13.53;;;8.60;;
24435;SDS011;12616;52.470;13.436;2023-02-13T08:17:12;11.93;;;8.50;;
24435;SDS011;12616;52.470;13.436;2023-02-13T08:19:39;10.43;;;7.90;;
24435;SDS011;12616;52.470;13.436;2023-02-13T08:22:07;9.90;;;7.43;;
24435;SDS011;12616;52.470;13.436;2023-02-13T08:24:34;8.33;;;6.80;;
24435;SDS011;12616;52.470;13.436;2023-02-13T08:27:01;14.17;;;7.97;;
24435;SDS011;12616;52.470;13.436;2023-02-13T08:29:28;9.97;;;7.30;;
24435;SDS011;12616;52.470;13.436;2023-02-13T08:31:55;7.50;;;5.97;;
24435;SDS011;12616;52.470;13.436;2023-02-13T08:34:22;9.07;;;6.77;;
24435;SDS011;12616;52.470;13.436;2023-02-13T08:36:49;9.60;;;7.07;;
24435;SDS011;12616;52.470;13.436;2023-02-13T08:39:20;8.77;;;6.90;;
24435;SDS011;12616;52.470;13.436;2023-02-13T08:41:47;10.30;;;7.50;;
24435;SDS011;12616;52.470;13.436;2023-02-13T08:44:14;11.73;;;7.57;;
24435;SDS011;12616;52.470;13.436;2023-02-13T08:46:40;10.77;;;6.80;;
24435;SDS011;12616;52.470;13.436;2023-02-13T08:49:07;10.13;;;6.50;;
24435;SDS011;12616;52.470;13.436;2023-02-13T08:51:34;11.70;;;6.17;;
24435;SDS011;12616;52.470;13.436;2023-02-13T08:54:03;11.40;;;6.37;;
24435;SDS011;12616;52.470;13.436;2023-02-13T08:56:31;8.77;;;7.03;;
24435;SDS011;12616;52.470;13.436;2023-02-13T08:58:59;13.60;;;8.00;;
24435;SDS011;12616;52.470;13.436;2023-02-13T09:01:26;12.17;;;7.10;;
24435;SDS011;12616;52.470;13.436;2023-02-13T09:03:54;10.90;;;6.83;;
24435;SDS011;12616;52.470;13.436;2023-02-13T09:06:21;12.27;;;8.23;;
24435;SDS011;12616;52.470;13.436;2023-02-13T09:08:50;7.97;;;6.67;;
24435;SDS011;12616;52.470;13.436;2023-02-13T09:11:17;7.50;;;5.80;;
24435;SDS011;12616;52.470;13.436;2023-02-13T09:13:48;9.00;;;7.13;;
24435;SDS011;12616;52.470;13.436;2023-02-13T09:16:17;8.13;;;5.87;;
24435;SDS011;12616;52.470;13.436;2023-02-13T09:18:45;17.03;;;9.30;;
24435;SDS011;12616;52.470;13.436;2023-02-13T09:21:13;9.23;;;7.00;;
24435;SDS011;12616;52.470;13.436;2023-02-13T09:23:40;10.73;;;7.40;;
24435;SDS011;12616;52.470;13.436;2023-02-13T09:26:07;10.77;;;6.90;;
24435;SDS011;12616;52.470;13.436;2023-02-13T09:28:35;10.50;;;7.53;;
24435;SDS011;12616;52.470;13.436;2023-02-13T09:31:07;13.00;;;7.30;;
24435;SDS011;12616;52.470;13.436;2023-02-13T09:33:35;15.40;;;8.10;;
24435;SDS011;12616;52.470;13.436;2023-02-13T09:36:03;8.00;;;5.60;;
24435;SDS011;12616;52.470;13.436;2023-02-13T09:38:30;13.07;;;8.30;;
24435;SDS011;12616;52.470;13.436;2023-02-13T09:40:58;13.27;;;8.20;;
24435;SDS011;12616;52.470;13.436;2023-02-13T09:43:28;14.47;;;8.50;;
24435;SDS011;12616;52.470;13.436;2023-02-13T09:45:57;10.83;;;7.40;;
24435;SDS011;12616;52.470;13.436;2023-02-13T09:48:29;11.17;;;6.80;;
24435;SDS011;12616;52.470;13.436;2023-02-13T09:50:57;11.40;;;7.20;;
24435;SDS011;12616;52.470;13.436;2023-02-13T09:53:26;12.90;;;8.17;;
24435;SDS011;12616;52.470;13.436;2023-02-13T09:55:59;14.03;;;8.67;;
24435;SDS011;12616;52.470;13.436;2023-02-13T09:58:38;13.40;;;8.73;;
24435;SDS011;12616;52.470;13.436;2023-02-13T10:01:15;18.43;;;9.00;;
24435;SDS011;12616;52.470;13.436;2023-02-13T10:03:52;12.90;;;8.27;;
24435;SDS011;12616;52.470;13.436;2023-02-13T10:06:39;15.47;;;10.20;;
24435;SDS011;12616;52.470;13.436;2023-02-13T10:09:16;14.60;;;9.07;;
24435;SDS011;12616;52.470;13.436;2023-02-13T10:12:00;18.13;;;9.50;;
24435;SDS011;12616;52.470;13.436;2023-02-13T10:14:44;14.17;;;9.37;;
24435;SDS011;12616;52.470;13.436;2023-02-13T10:17:20;14.53;;;9.60;;
24435;SDS011;12616;52.470;13.436;2023-02-13T10:19:55;15.03;;;8.90;;
24435;SDS011;12616;52.470;13.436;2023-02-13T10:22:28;20.17;;;10.07;;
24435;SDS011;12616;52.470;13.436;2023-02-13T10:24:58;17.90;;;9.43;;
24435;SDS011;12616;52.470;13.436;2023-02-13T10:27:29;14.20;;;10.10;;
24435;SDS011;12616;52.470;13.436;2023-02-13T10:30:01;14.13;;;9.10;;
24435;SDS011;12616;52.470;13.436;2023-02-13T10:32:38;13.63;;;9.23;;
24435;SDS011;12616;52.470;13.436;2023-02-13T10:37:58;11.30;;;8.00;;
24435;SDS011;12616;52.470;13.436;2023-02-13T10:40:28;13.77;;;8.80;;
24435;SDS011;12616;52.470;13.436;2023-02-13T10:42:59;14.23;;;9.77;;
24435;SDS011;12616;52.470;13.436;2023-02-13T10:45:39;14.70;;;8.67;;
24435;SDS011;12616;52.470;13.436;2023-02-13T10:48:25;13.93;;;8.47;;
24435;SDS011;12616;52.470;13.436;2023-02-13T10:51:04;14.23;;;8.47;;
24435;SDS011;12616;52.470;13.436;2023-02-13T10:53:44;14.20;;;8.30;;
24435;SDS011;12616;52.470;13.436;2023-02-13T10:56:25;17.07;;;8.90;;
24435;SDS011;12616;52.470;13.436;2023-02-13T10:59:00;12.23;;;8.40;;
24435;SDS011;12616;52.470;13.436;2023-02-13T11:01:41;10.40;;;7.13;;
24435;SDS011;12616;52.470;13.436;2023-02-13T11:04:13;14.80;;;9.10;;
24435;SDS011;12616;52.470;13.436;2023-02-13T11:06:47;14.37;;;9.07;;
24435;SDS011;12616;52.470;13.436;2023-02-13T11:09:19;19.80;;;8.17;;
24435;SDS011;12616;52.470;13.436;2023-02-13T11:11:46;12.43;;;8.37;;
24435;SDS011;12616;52.470;13.436;2023-02-13T11:14:14;14.43;;;8.27;;
24435;SDS011;12616;52.470;13.436;2023-02-13T11:16:46;15.27;;;9.33;;
24435;SDS011;12616;52.470;13.436;2023-02-13T11:19:18;12.83;;;10.13;;
24435;SDS011;12616;52.470;13.436;2023-02-13T11:21:52;15.97;;;10.17;;
24435;SDS011;12616;52.470;13.436;2023-02-13T11:24:20;13.07;;;9.33;;
24435;SDS011;12616;52.470;13.436;2023-02-13T11:26:50;15.53;;;9.37;;
24435;SDS011;12616;52.470;13.436;2023-02-13T11:29:21;16.23;;;11.27;;
24435;SDS011;12616;52.470;13.436;2023-02-13T11:32:00;15.13;;;9.83;;
24435;SDS011;12616;52.470;13.436;2023-02-13T11:34:31;14.27;;;10.83;;
24435;SDS011;12616;52.470;13.436;2023-02-13T11:37:15;17.50;;;10.90;;
24435;SDS011;12616;52.470;13.436;2023-02-13T11:39:45;15.40;;;10.20;;
24435;SDS011;12616;52.470;13.436;2023-02-13T11:42:12;20.53;;;12.30;;
24435;SDS011;12616;52.470;13.436;2023-02-13T11:44:40;17.00;;;10.57;;
24435;SDS011;12616;52.470;13.436;2023-02-13T11:47:10;15.63;;;9.87;;
24435;SDS011;12616;52.470;13.436;2023-02-13T11:49:38;18.57;;;11.80;;
24435;SDS011;12616;52.470;13.436;2023-02-13T11:52:13;15.57;;;10.50;;
24435;SDS011;12616;52.470;13.436;2023-02-13T11:54:55;22.00;;;12.43;;
24435;SDS011;12616;52.470;13.436;2023-02-13T11:57:23;15.07;;;10.70;;
24435;SDS011;12616;52.470;13.436;2023-02-13T11:59:53;17.83;;;12.07;;
24435;SDS011;12616;52.470;13.436;2023-02-13T12:02:21;21.00;;;11.10;;
24435;SDS011;12616;52.470;13.436;2023-02-13T12:04:50;23.23;;;14.60;;
24435;SDS011;12616;52.470;13.436;2023-02-13T12:07:19;15.83;;;10.87;;
24435;SDS011;12616;52.470;13.436;2023-02-13T12:09:50;16.80;;;12.00;;
24435;SDS011;12616;52.470;13.436;2023-02-13T12:12:24;15.20;;;11.17;;
24435;SDS011;12616;52.470;13.436;2023-02-13T12:14:55;23.37;;;13.00;;
24435;SDS011;12616;52.470;13.436;2023-02-13T12:17:22;17.43;;;11.70;;
24435;SDS011;12616;52.470;13.436;2023-02-13T12:19:53;16.80;;;13.10;;
24435;SDS011;12616;52.470;13.436;2023-02-13T12:22:23;15.70;;;11.17;;
24435;SDS011;12616;52.470;13.436;2023-02-13T12:25:01;19.00;;;13.23;;
24435;SDS011;12616;52.470;13.436;2023-02-13T12:27:49;26.30;;;14.80;;
24435;SDS011;12616;52.470;13.436;2023-02-13T12:30:31;21.17;;;14.43;;
24435;SDS011;12616;52.470;13.436;2023-02-13T12:33:24;20.73;;;13.60;;
24435;SDS011;12616;52.470;13.436;2023-02-13T12:36:00;23.33;;;14.23;;
24435;SDS011;12616;52.470;13.436;2023-02-13T12:38:36;29.17;;;13.40;;
24435;SDS011;12616;52.470;13.436;2023-02-13T12:41:19;20.20;;;12.47;;
24435;SDS011;12616;52.470;13.436;2023-02-13T12:46:47;23.50;;;12.30;;
24435;SDS011;12616;52.470;13.436;2023-02-13T12:49:24;24.43;;;17.40;;
24435;SDS011;12616;52.470;13.436;2023-02-13T12:52:10;19.00;;;13.33;;
24435;SDS011;12616;52.470;13.436;2023-02-13T12:54:49;21.70;;;11.83;;
24435;SDS011;12616;52.470;13.436;2023-02-13T12:57:35;16.73;;;11.60;;
24435;SDS011;12616;52.470;13.436;2023-02-13T13:00:18;20.73;;;13.40;;
24435;SDS011;12616;52.470;13.436;2023-02-13T13:03:00;20.20;;;13.73;;
24435;SDS011;12616;52.470;13.436;2023-02-13T13:05:46;21.00;;;13.90;;
24435;SDS011;12616;52.470;13.436;2023-02-13T13:08:33;19.53;;;12.57;;
24435;SDS011;12616;52.470;13.436;2023-02-13T13:11:29;17.60;;;11.63;;
24435;SDS011;12616;52.470;13.436;2023-02-13T13:14:13;23.03;;;14.83;;
24435;SDS011;12616;52.470;13.436;2023-02-13T13:16:48;19.70;;;12.43;;
24435;SDS011;12616;52.470;13.436;2023-02-13T13:19:24;20.40;;;12.20;;
24435;SDS011;12616;52.470;13.436;2023-02-13T13:22:01;20.63;;;10.47;;
24435;SDS011;12616;52.470;13.436;2023-02-13T13:24:36;16.23;;;10.17;;
24435;SDS011;12616;52.470;13.436;2023-02-13T13:27:14;20.10;;;10.40;;
24435;SDS011;12616;52.470;13.436;2023-02-13T13:29:50;17.10;;;12.00;;
24435;SDS011;12616;52.470;13.436;2023-02-13T13:32:22;21.27;;;11.03;;
24435;SDS011;12616;52.470;13.436;2023-02-13T13:34:51;16.73;;;10.93;;
24435;SDS011;12616;52.470;13.436;2023-02-13T13:37:21;19.73;;;11.83;;
24435;SDS011;12616;52.470;13.436;2023-02-13T13:39:56;15.80;;;10.80;;
24435;SDS011;12616;52.470;13.436;2023-02-13T13:42:30;21.77;;;11.63;;
24435;SDS011;12616;52.470;13.436;2023-02-13T13:45:09;21.93;;;13.50;;
24435;SDS011;12616;52.470;13.436;2023-02-13T13:47:51;20.83;;;11.63;;
24435;SDS011;12616;52.470;13.436;2023-02-13T13:50:26;24.27;;;11.90;;
24435;SDS011;12616;52.470;13.436;2023-02-13T13:53:05;20.37;;;12.10;;
24435;SDS011;12616;52.470;13.436;2023-02-13T13:58:32;20.77;;;13.23;;
24435;SDS011;12616;52.470;13.436;2023-02-13T14:01:21;21.17;;;12.97;;
24435;SDS011;12616;52.470;13.436;2023-02-13T14:03:50;25.27;;;12.63;;
24435;SDS011;12616;52.470;13.436;2023-02-13T14:06:19;20.53;;;11.80;;
24435;SDS011;12616;52.470;13.436;2023-02-13T14:08:58;19.90;;;12.17;;
24435;SDS011;12616;52.470;13.436;2023-02-13T14:11:28;18.80;;;10.47;;
24435;SDS011;12616;52.470;13.436;2023-02-13T14:20:34;26.13;;;14.97;;
24435;SDS011;12616;52.470;13.436;2023-02-13T14:23:15;17.57;;;12.07;;
24435;SDS011;12616;52.470;13.436;2023-02-13T14:25:48;17.33;;;11.60;;
24435;SDS011;12616;52.470;13.436;2023-02-13T14:28:36;20.40;;;12.63;;
24435;SDS011;12616;52.470;13.436;2023-02-13T14:31:05;20.70;;;11.67;;
24435;SDS011;12616;52.470;13.436;2023-02-13T14:33:38;21.20;;;12.70;;
24435;SDS011;12616;52.470;13.436;2023-02-13T14:36:07;18.63;;;12.27;;
24435;SDS011;12616;52.470;13.436;2023-02-13T14:38:53;24.13;;;13.60;;
24435;SDS011;12616;52.470;13.436;2023-02-13T14:41:40;19.60;;;12.20;;
24435;SDS011;12616;52.470;13.436;2023-02-13T14:44:22;21.13;;;13.40;;
24435;SDS011;12616;52.470;13.436;2023-02-13T14:46:51;21.87;;;12.57;;
24435;SDS011;12616;52.470;13.436;2023-02-13T14:49:21;21.57;;;12.43;;
24435;SDS011;12616;52.470;13.436;2023-02-13T14:51:53;21.90;;;12.50;;
24435;SDS011;12616;52.470;13.436;2023-02-13T14:54:23;20.52;;;12.98;;
24435;SDS011;12616;52.470;13.436;2023-02-13T14:56:54;18.70;;;10.83;;
24435;SDS011;12616;52.470;13.436;2023-02-13T14:59:30;23.30;;;11.77;;
24435;SDS011;12616;52.470;13.436;2023-02-13T15:02:03;22.83;;;12.57;;
24435;SDS011;12616;52.470;13.436;2023-02-13T15:04:40;16.87;;;11.57;;
24435;SDS011;12616;52.470;13.436;2023-02-13T15:07:14;21.55;;;12.23;;
24435;SDS011;12616;52.470;13.436;2023-02-13T15:09:44;25.52;;;13.20;;
24435;SDS011;12616;52.470;13.436;2023-02-13T15:12:25;21.40;;;11.53;;